sensor_id;sensor_type;location;lat;lon;timestamp;P1;durP1;ratioP1;P2;durP2;ratioP2
64225;SDS011;50545;56.064;26.178;2023-05-10T00:01:17;3.33;;;1.80;;
64225;SDS011;50545;56.064;26.178;2023-05-10T00:03:45;3.15;;;2.05;;
64225;SDS011;50545;56.064;26.178;2023-05-10T00:06:12;5.90;;;2.10;;
64225;SDS011;50545;56.064;26.178;2023-05-10T00:08:39;4.43;;;2.38;;
64225;SDS011;50545;56.064;26.178;2023-05-10T00:11:07;3.22;;;2.10;;
64225;SDS011;50545;56.064;26.178;2023-05-10T00:13:34;3.72;;;2.00;;
64225;SDS011;50545;56.064;26.178;2023-05-10T00:16:01;3.47;;;2.00;;
64225;SDS011;50545;56.064;26.178;2023-05-10T00:18:29;5.07;;;2.35;;
64225;SDS011;50545;56.064;26.178;2023-05-10T00:20:56;2.83;;;2.15;;
64225;SDS011;50545;56.064;26.178;2023-05-10T00:23:23;3.92;;;2.47;;
64225;SDS011;50545;56.064;26.178;2023-05-10T00:25:50;4.72;;;2.47;;
64225;SDS011;50545;56.064;26.178;2023-05-10T00:28:17;4.22;;;2.20;;
64225;SDS011;50545;56.064;26.178;2023-05-10T00:30:45;3.47;;;2.38;;
64225;SDS011;50545;56.064;26.178;2023-05-10T00:33:12;3.55;;;2.13;;
64225;SDS011;50545;56.064;26.178;2023-05-10T00:35:39;3.13;;;2.22;;
64225;SDS011;50545;56.064;26.178;2023-05-10T00:38:06;4.28;;;2.60;;
64225;SDS011;50545;56.064;26.178;2023-05-10T00:40:35;2.65;;;2.05;;
64225;SDS011;50545;56.064;26.178;2023-05-10T00:43:03;5.05;;;2.47;;
64225;SDS011;50545;56.064;26.178;2023-05-10T00:45:32;4.32;;;2.55;;
64225;SDS011;50545;56.064;26.178;2023-05-10T00:48:01;3.72;;;2.20;;
64225;SDS011;50545;56.064;26.178;2023-05-10T00:50:30;2.40;;;1.98;;
64225;SDS011;50545;56.064;26.178;2023-05-10T00:52:59;3.67;;;2.35;;
64225;SDS011;50545;56.064;26.178;2023-05-10T00:55:27;4.10;;;2.45;;
64225;SDS011;50545;56.064;26.178;2023-05-10T00:57:55;6.80;;;2.58;;
64225;SDS011;50545;56.064;26.178;2023-05-10T01:00:22;3.53;;;2.25;;
64225;SDS011;50545;56.064;26.178;2023-05-10T01:02:50;3.72;;;2.50;;
64225;SDS011;50545;56.064;26.178;2023-05-10T01:05:17;3.55;;;2.30;;
64225;SDS011;50545;56.064;26.178;2023-05-10T01:07:45;3.78;;;2.42;;
64225;SDS011;50545;56.064;26.178;2023-05-10T01:10:12;4.63;;;2.55;;
64225;SDS011;50545;56.064;26.178;2023-05-10T01:12:40;4.40;;;2.38;;
64225;SDS011;50545;56.064;26.178;2023-05-10T01:15:09;3.67;;;2.45;;
64225;SDS011;50545;56.064;26.178;2023-05-10T01:17:39;4.53;;;2.67;;
64225;SDS011;50545;56.064;26.178;2023-05-10T01:20:08;6.82;;;3.00;;
64225;SDS011;50545;56.064;26.178;2023-05-10T01:34:25;5.10;;;2.58;;
64225;SDS011;50545;56.064;26.178;2023-05-10T01:36:58;7.32;;;2.70;;
64225;SDS011;50545;56.064;26.178;2023-05-10T01:39:34;4.80;;;2.40;;
64225;SDS011;50545;56.064;26.178;2023-05-10T01:42:17;5.07;;;2.70;;
64225;SDS011;50545;56.064;26.178;2023-05-10T01:47:46;4.57;;;2.67;;
64225;SDS011;50545;56.064;26.178;2023-05-10T01:50:16;5.22;;;2.70;;
64225;SDS011;50545;56.064;26.178;2023-05-10T01:52:51;5.72;;;2.38;;
64225;SDS011;50545;56.064;26.178;2023-05-10T01:55:22;4.40;;;2.60;;
64225;SDS011;50545;56.064;26.178;2023-05-10T01:57:53;4.10;;;2.40;;
64225;SDS011;50545;56.064;26.178;2023-05-10T02:00:26;4.75;;;2.72;;
64225;SDS011;50545;56.064;26.178;2023-05-10T02:02:55;6.03;;;2.75;;
64225;SDS011;50545;56.064;26.178;2023-05-10T02:05:23;3.97;;;2.35;;
64225;SDS011;50545;56.064;26.178;2023-05-10T02:07:51;6.03;;;3.10;;
64225;SDS011;50545;56.064;26.178;2023-05-10T02:10:19;4.55;;;2.50;;
64225;SDS011;50545;56.064;26.178;2023-05-10T02:12:47;3.90;;;2.58;;
64225;SDS011;50545;56.064;26.178;2023-05-10T02:15:20;4.50;;;2.60;;
64225;SDS011;50545;56.064;26.178;2023-05-10T02:17:49;4.20;;;2.42;;
64225;SDS011;50545;56.064;26.178;2023-05-10T02:20:16;3.70;;;2.22;;
64225;SDS011;50545;56.064;26.178;2023-05-10T02:22:46;4.13;;;2.50;;
64225;SDS011;50545;56.064;26.178;2023-05-10T02:25:15;5.00;;;2.70;;
64225;SDS011;50545;56.064;26.178;2023-05-10T02:27:46;4.75;;;2.70;;
64225;SDS011;50545;56.064;26.178;2023-05-10T02:30:14;4.22;;;2.47;;
64225;SDS011;50545;56.064;26.178;2023-05-10T02:32:43;5.18;;;2.47;;
64225;SDS011;50545;56.064;26.178;2023-05-10T02:35:11;5.10;;;2.40;;
64225;SDS011;50545;56.064;26.178;2023-05-10T02:37:39;6.53;;;2.70;;
64225;SDS011;50545;56.064;26.178;2023-05-10T02:40:07;4.03;;;2.58;;
64225;SDS011;50545;56.064;26.178;2023-05-10T02:42:37;5.10;;;2.28;;
64225;SDS011;50545;56.064;26.178;2023-05-10T02:45:11;4.35;;;2.30;;
64225;SDS011;50545;56.064;26.178;2023-05-10T02:47:39;3.72;;;2.50;;
64225;SDS011;50545;56.064;26.178;2023-05-10T02:50:07;3.78;;;2.28;;
64225;SDS011;50545;56.064;26.178;2023-05-10T02:52:45;4.50;;;2.70;;
64225;SDS011;50545;56.064;26.178;2023-05-10T02:55:15;5.75;;;2.53;;
64225;SDS011;50545;56.064;26.178;2023-05-10T02:57:46;4.72;;;2.13;;
64225;SDS011;50545;56.064;26.178;2023-05-10T03:00:18;4.40;;;2.58;;
64225;SDS011;50545;56.064;26.178;2023-05-10T03:02:45;5.82;;;2.60;;
64225;SDS011;50545;56.064;26.178;2023-05-10T03:05:14;3.70;;;2.50;;
64225;SDS011;50545;56.064;26.178;2023-05-10T03:07:42;4.13;;;2.70;;
64225;SDS011;50545;56.064;26.178;2023-05-10T03:10:09;5.78;;;2.55;;
64225;SDS011;50545;56.064;26.178;2023-05-10T03:18:13;3.15;;;2.33;;
64225;SDS011;50545;56.064;26.178;2023-05-10T03:20:48;4.18;;;2.22;;
64225;SDS011;50545;56.064;26.178;2023-05-10T03:25:45;5.57;;;2.22;;
64225;SDS011;50545;56.064;26.178;2023-05-10T03:28:15;7.32;;;2.25;;
64225;SDS011;50545;56.064;26.178;2023-05-10T03:30:44;4.22;;;2.47;;
64225;SDS011;50545;56.064;26.178;2023-05-10T03:33:12;3.85;;;2.30;;
64225;SDS011;50545;56.064;26.178;2023-05-10T03:35:40;4.47;;;2.63;;
64225;SDS011;50545;56.064;26.178;2023-05-10T03:38:08;4.25;;;2.35;;
64225;SDS011;50545;56.064;26.178;2023-05-10T03:40:35;4.50;;;2.55;;
64225;SDS011;50545;56.064;26.178;2023-05-10T03:43:02;4.05;;;2.40;;
64225;SDS011;50545;56.064;26.178;2023-05-10T03:45:29;3.65;;;2.28;;
64225;SDS011;50545;56.064;26.178;2023-05-10T03:47:57;4.07;;;2.47;;
64225;SDS011;50545;56.064;26.178;2023-05-10T03:50:25;4.07;;;2.30;;
64225;SDS011;50545;56.064;26.178;2023-05-10T03:52:52;3.80;;;2.40;;
64225;SDS011;50545;56.064;26.178;2023-05-10T03:55:20;4.90;;;2.50;;
64225;SDS011;50545;56.064;26.178;2023-05-10T03:57:47;3.75;;;2.38;;
64225;SDS011;50545;56.064;26.178;2023-05-10T04:00:16;4.82;;;2.08;;
64225;SDS011;50545;56.064;26.178;2023-05-10T04:02:44;3.75;;;2.33;;
64225;SDS011;50545;56.064;26.178;2023-05-10T04:05:11;3.10;;;2.28;;
64225;SDS011;50545;56.064;26.178;2023-05-10T04:07:39;4.18;;;2.30;;
64225;SDS011;50545;56.064;26.178;2023-05-10T04:10:06;3.38;;;1.95;;
64225;SDS011;50545;56.064;26.178;2023-05-10T04:12:34;3.92;;;2.38;;
64225;SDS011;50545;56.064;26.178;2023-05-10T04:15:01;4.80;;;2.60;;
64225;SDS011;50545;56.064;26.178;2023-05-10T04:17:28;5.78;;;2.60;;
64225;SDS011;50545;56.064;26.178;2023-05-10T04:19:55;3.15;;;2.25;;
64225;SDS011;50545;56.064;26.178;2023-05-10T04:22:23;4.00;;;2.33;;
64225;SDS011;50545;56.064;26.178;2023-05-10T04:24:50;4.53;;;2.55;;
64225;SDS011;50545;56.064;26.178;2023-05-10T04:27:17;4.15;;;2.40;;
64225;SDS011;50545;56.064;26.178;2023-05-10T04:29:44;2.83;;;2.20;;
64225;SDS011;50545;56.064;26.178;2023-05-10T04:32:11;4.57;;;2.60;;
64225;SDS011;50545;56.064;26.178;2023-05-10T04:34:39;3.97;;;2.40;;
64225;SDS011;50545;56.064;26.178;2023-05-10T04:37:06;4.45;;;2.63;;
64225;SDS011;50545;56.064;26.178;2023-05-10T04:39:34;4.32;;;2.13;;
64225;SDS011;50545;56.064;26.178;2023-05-10T04:42:02;3.05;;;2.03;;
64225;SDS011;50545;56.064;26.178;2023-05-10T04:44:32;3.08;;;1.95;;
64225;SDS011;50545;56.064;26.178;2023-05-10T04:46:59;3.97;;;2.42;;
64225;SDS011;50545;56.064;26.178;2023-05-10T04:49:29;4.25;;;2.20;;
64225;SDS011;50545;56.064;26.178;2023-05-10T04:51:56;4.13;;;2.35;;
64225;SDS011;50545;56.064;26.178;2023-05-10T04:54:23;5.57;;;2.30;;
64225;SDS011;50545;56.064;26.178;2023-05-10T04:56:51;4.18;;;2.10;;
64225;SDS011;50545;56.064;26.178;2023-05-10T04:59:18;3.15;;;2.22;;
64225;SDS011;50545;56.064;26.178;2023-05-10T05:01:45;3.30;;;1.98;;
64225;SDS011;50545;56.064;26.178;2023-05-10T05:04:13;5.20;;;2.25;;
64225;SDS011;50545;56.064;26.178;2023-05-10T05:06:41;3.70;;;2.30;;
64225;SDS011;50545;56.064;26.178;2023-05-10T05:09:08;3.17;;;2.00;;
64225;SDS011;50545;56.064;26.178;2023-05-10T05:11:36;3.97;;;2.28;;
64225;SDS011;50545;56.064;26.178;2023-05-10T05:14:03;3.20;;;1.95;;
64225;SDS011;50545;56.064;26.178;2023-05-10T05:16:30;4.13;;;2.33;;
64225;SDS011;50545;56.064;26.178;2023-05-10T05:18:59;3.30;;;2.15;;
64225;SDS011;50545;56.064;26.178;2023-05-10T05:21:27;3.30;;;2.35;;
64225;SDS011;50545;56.064;26.178;2023-05-10T05:23:55;3.25;;;2.10;;
64225;SDS011;50545;56.064;26.178;2023-05-10T05:26:22;3.13;;;2.00;;
64225;SDS011;50545;56.064;26.178;2023-05-10T05:28:49;2.88;;;2.08;;
64225;SDS011;50545;56.064;26.178;2023-05-10T05:31:20;2.35;;;1.75;;
64225;SDS011;50545;56.064;26.178;2023-05-10T05:33:47;3.20;;;2.10;;
64225;SDS011;50545;56.064;26.178;2023-05-10T05:36:14;2.83;;;1.92;;
64225;SDS011;50545;56.064;26.178;2023-05-10T05:38:42;4.47;;;2.08;;
64225;SDS011;50545;56.064;26.178;2023-05-10T05:41:09;3.95;;;1.98;;
64225;SDS011;50545;56.064;26.178;2023-05-10T05:43:36;2.15;;;1.67;;
64225;SDS011;50545;56.064;26.178;2023-05-10T05:46:04;2.47;;;1.67;;
64225;SDS011;50545;56.064;26.178;2023-05-10T05:48:31;3.20;;;1.90;;
64225;SDS011;50545;56.064;26.178;2023-05-10T05:50:58;2.45;;;1.85;;
64225;SDS011;50545;56.064;26.178;2023-05-10T05:53:26;2.72;;;1.92;;
64225;SDS011;50545;56.064;26.178;2023-05-10T05:55:53;2.70;;;1.83;;
64225;SDS011;50545;56.064;26.178;2023-05-10T05:58:22;2.55;;;1.67;;
64225;SDS011;50545;56.064;26.178;2023-05-10T06:00:49;3.30;;;2.25;;
64225;SDS011;50545;56.064;26.178;2023-05-10T06:03:18;3.10;;;2.03;;
64225;SDS011;50545;56.064;26.178;2023-05-10T06:05:46;2.97;;;1.85;;
64225;SDS011;50545;56.064;26.178;2023-05-10T06:08:13;3.15;;;2.03;;
64225;SDS011;50545;56.064;26.178;2023-05-10T06:10:40;3.03;;;2.17;;
64225;SDS011;50545;56.064;26.178;2023-05-10T06:13:08;3.38;;;2.15;;
64225;SDS011;50545;56.064;26.178;2023-05-10T06:15:35;3.70;;;2.25;;
64225;SDS011;50545;56.064;26.178;2023-05-10T06:18:02;4.40;;;2.00;;
64225;SDS011;50545;56.064;26.178;2023-05-10T06:20:30;2.78;;;1.80;;
64225;SDS011;50545;56.064;26.178;2023-05-10T06:23:00;3.40;;;1.80;;
64225;SDS011;50545;56.064;26.178;2023-05-10T06:25:27;3.90;;;2.30;;
64225;SDS011;50545;56.064;26.178;2023-05-10T06:27:54;3.75;;;1.85;;
64225;SDS011;50545;56.064;26.178;2023-05-10T06:30:24;2.17;;;1.80;;
64225;SDS011;50545;56.064;26.178;2023-05-10T06:32:55;3.00;;;1.90;;
64225;SDS011;50545;56.064;26.178;2023-05-10T06:35:23;2.72;;;1.80;;
64225;SDS011;50545;56.064;26.178;2023-05-10T06:37:50;2.13;;;1.60;;
64225;SDS011;50545;56.064;26.178;2023-05-10T06:40:18;2.92;;;1.92;;
64225;SDS011;50545;56.064;26.178;2023-05-10T06:42:46;3.03;;;1.92;;
64225;SDS011;50545;56.064;26.178;2023-05-10T06:45:14;3.47;;;2.17;;
64225;SDS011;50545;56.064;26.178;2023-05-10T06:47:43;3.75;;;1.83;;
64225;SDS011;50545;56.064;26.178;2023-05-10T06:50:10;2.25;;;1.55;;
64225;SDS011;50545;56.064;26.178;2023-05-10T06:52:38;5.20;;;2.45;;
64225;SDS011;50545;56.064;26.178;2023-05-10T06:55:06;2.45;;;1.98;;
64225;SDS011;50545;56.064;26.178;2023-05-10T06:57:34;2.63;;;2.08;;
64225;SDS011;50545;56.064;26.178;2023-05-10T07:00:01;3.83;;;1.92;;
64225;SDS011;50545;56.064;26.178;2023-05-10T07:02:30;2.40;;;1.65;;
64225;SDS011;50545;56.064;26.178;2023-05-10T07:04:57;5.38;;;2.38;;
64225;SDS011;50545;56.064;26.178;2023-05-10T07:09:57;2.92;;;1.80;;
64225;SDS011;50545;56.064;26.178;2023-05-10T07:12:24;4.32;;;1.92;;
64225;SDS011;50545;56.064;26.178;2023-05-10T07:14:52;3.72;;;2.30;;
64225;SDS011;50545;56.064;26.178;2023-05-10T07:17:19;2.03;;;1.77;;
64225;SDS011;50545;56.064;26.178;2023-05-10T07:19:46;4.95;;;2.40;;
64225;SDS011;50545;56.064;26.178;2023-05-10T07:22:16;2.85;;;1.95;;
64225;SDS011;50545;56.064;26.178;2023-05-10T07:24:44;2.83;;;2.08;;
64225;SDS011;50545;56.064;26.178;2023-05-10T07:27:12;4.05;;;2.22;;
64225;SDS011;50545;56.064;26.178;2023-05-10T07:29:39;1.75;;;1.65;;
64225;SDS011;50545;56.064;26.178;2023-05-10T07:32:06;4.70;;;2.08;;
64225;SDS011;50545;56.064;26.178;2023-05-10T07:34:34;2.42;;;1.80;;
64225;SDS011;50545;56.064;26.178;2023-05-10T07:37:01;2.15;;;1.70;;
64225;SDS011;50545;56.064;26.178;2023-05-10T07:39:28;2.75;;;1.90;;
64225;SDS011;50545;56.064;26.178;2023-05-10T07:41:56;3.47;;;1.50;;
64225;SDS011;50545;56.064;26.178;2023-05-10T07:44:23;2.63;;;1.98;;
64225;SDS011;50545;56.064;26.178;2023-05-10T07:46:50;3.65;;;2.13;;
64225;SDS011;50545;56.064;26.178;2023-05-10T07:49:18;3.08;;;2.00;;
64225;SDS011;50545;56.064;26.178;2023-05-10T07:51:46;2.13;;;1.30;;
64225;SDS011;50545;56.064;26.178;2023-05-10T07:54:13;3.58;;;2.05;;
64225;SDS011;50545;56.064;26.178;2023-05-10T07:56:41;3.90;;;2.20;;
64225;SDS011;50545;56.064;26.178;2023-05-10T07:59:15;3.95;;;1.98;;
64225;SDS011;50545;56.064;26.178;2023-05-10T08:01:43;3.53;;;1.95;;
64225;SDS011;50545;56.064;26.178;2023-05-10T08:04:11;3.10;;;2.22;;
64225;SDS011;50545;56.064;26.178;2023-05-10T08:06:39;3.55;;;2.20;;
64225;SDS011;50545;56.064;26.178;2023-05-10T08:09:07;1.92;;;1.52;;
64225;SDS011;50545;56.064;26.178;2023-05-10T08:11:34;2.22;;;1.30;;
64225;SDS011;50545;56.064;26.178;2023-05-10T08:14:02;2.90;;;2.00;;
64225;SDS011;50545;56.064;26.178;2023-05-10T08:16:29;5.97;;;1.70;;
64225;SDS011;50545;56.064;26.178;2023-05-10T08:18:56;3.13;;;2.17;;
64225;SDS011;50545;56.064;26.178;2023-05-10T08:21:24;2.35;;;1.60;;
64225;SDS011;50545;56.064;26.178;2023-05-10T08:23:52;3.17;;;1.85;;
64225;SDS011;50545;56.064;26.178;2023-05-10T08:26:19;2.65;;;1.90;;
64225;SDS011;50545;56.064;26.178;2023-05-10T08:28:48;5.03;;;2.40;;
64225;SDS011;50545;56.064;26.178;2023-05-10T08:31:15;5.25;;;2.40;;
64225;SDS011;50545;56.064;26.178;2023-05-10T08:33:42;3.80;;;2.03;;
64225;SDS011;50545;56.064;26.178;2023-05-10T08:36:10;2.78;;;1.80;;
64225;SDS011;50545;56.064;26.178;2023-05-10T08:38:37;6.40;;;2.40;;
64225;SDS011;50545;56.064;26.178;2023-05-10T08:41:05;2.83;;;1.80;;
64225;SDS011;50545;56.064;26.178;2023-05-10T08:43:32;2.58;;;1.98;;
64225;SDS011;50545;56.064;26.178;2023-05-10T08:46:02;3.80;;;2.20;;
64225;SDS011;50545;56.064;26.178;2023-05-10T08:48:33;2.05;;;1.73;;
64225;SDS011;50545;56.064;26.178;2023-05-10T08:51:01;2.15;;;1.70;;
64225;SDS011;50545;56.064;26.178;2023-05-10T08:53:30;3.95;;;1.70;;
64225;SDS011;50545;56.064;26.178;2023-05-10T08:56:00;2.08;;;1.48;;
64225;SDS011;50545;56.064;26.178;2023-05-10T08:58:28;3.25;;;1.98;;
64225;SDS011;50545;56.064;26.178;2023-05-10T09:00:56;2.03;;;1.48;;
64225;SDS011;50545;56.064;26.178;2023-05-10T09:03:24;3.67;;;1.73;;
64225;SDS011;50545;56.064;26.178;2023-05-10T09:05:52;3.25;;;1.42;;
64225;SDS011;50545;56.064;26.178;2023-05-10T09:08:19;2.78;;;1.65;;
64225;SDS011;50545;56.064;26.178;2023-05-10T09:10:47;3.00;;;2.00;;
64225;SDS011;50545;56.064;26.178;2023-05-10T09:13:15;2.60;;;1.52;;
64225;SDS011;50545;56.064;26.178;2023-05-10T09:15:43;2.33;;;1.60;;
64225;SDS011;50545;56.064;26.178;2023-05-10T09:18:11;2.85;;;2.00;;
64225;SDS011;50545;56.064;26.178;2023-05-10T09:20:39;1.88;;;1.67;;
64225;SDS011;50545;56.064;26.178;2023-05-10T09:23:07;3.28;;;1.90;;
64225;SDS011;50545;56.064;26.178;2023-05-10T09:25:34;3.88;;;2.25;;
64225;SDS011;50545;56.064;26.178;2023-05-10T09:28:02;2.47;;;1.90;;
64225;SDS011;50545;56.064;26.178;2023-05-10T09:30:33;3.90;;;2.13;;
64225;SDS011;50545;56.064;26.178;2023-05-10T09:33:01;2.35;;;1.80;;
64225;SDS011;50545;56.064;26.178;2023-05-10T09:35:30;2.00;;;1.55;;
64225;SDS011;50545;56.064;26.178;2023-05-10T09:38:02;2.83;;;2.05;;
64225;SDS011;50545;56.064;26.178;2023-05-10T09:40:31;3.25;;;1.90;;
64225;SDS011;50545;56.064;26.178;2023-05-10T09:43:11;1.90;;;1.52;;
64225;SDS011;50545;56.064;26.178;2023-05-10T09:45:40;1.80;;;1.55;;
64225;SDS011;50545;56.064;26.178;2023-05-10T09:48:08;3.25;;;1.95;;
64225;SDS011;50545;56.064;26.178;2023-05-10T09:50:35;3.92;;;2.30;;
64225;SDS011;50545;56.064;26.178;2023-05-10T09:53:03;4.07;;;2.08;;
64225;SDS011;50545;56.064;26.178;2023-05-10T09:55:42;2.42;;;1.77;;
64225;SDS011;50545;56.064;26.178;2023-05-10T09:58:12;3.00;;;1.58;;
64225;SDS011;50545;56.064;26.178;2023-05-10T10:00:44;2.25;;;1.17;;
64225;SDS011;50545;56.064;26.178;2023-05-10T10:03:15;1.98;;;1.15;;
64225;SDS011;50545;56.064;26.178;2023-05-10T10:05:44;2.83;;;1.90;;
64225;SDS011;50545;56.064;26.178;2023-05-10T10:08:13;2.70;;;1.80;;
64225;SDS011;50545;56.064;26.178;2023-05-10T10:10:41;2.10;;;1.63;;
64225;SDS011;50545;56.064;26.178;2023-05-10T10:13:12;2.03;;;1.55;;
64225;SDS011;50545;56.064;26.178;2023-05-10T10:15:40;2.10;;;1.63;;
64225;SDS011;50545;56.064;26.178;2023-05-10T10:18:12;2.17;;;1.50;;
64225;SDS011;50545;56.064;26.178;2023-05-10T10:20:42;3.55;;;1.90;;
64225;SDS011;50545;56.064;26.178;2023-05-10T10:23:09;2.85;;;1.40;;
64225;SDS011;50545;56.064;26.178;2023-05-10T10:25:36;2.60;;;1.55;;
64225;SDS011;50545;56.064;26.178;2023-05-10T10:28:16;3.15;;;1.83;;
64225;SDS011;50545;56.064;26.178;2023-05-10T10:30:56;2.38;;;1.70;;
64225;SDS011;50545;56.064;26.178;2023-05-10T10:33:53;2.45;;;1.70;;
64225;SDS011;50545;56.064;26.178;2023-05-10T10:36:23;2.85;;;1.92;;
64225;SDS011;50545;56.064;26.178;2023-05-10T10:54:57;2.47;;;1.85;;
64225;SDS011;50545;56.064;26.178;2023-05-10T11:02:58;2.70;;;1.60;;
64225;SDS011;50545;56.064;26.178;2023-05-10T11:10:51;2.88;;;1.70;;
64225;SDS011;50545;56.064;26.178;2023-05-10T11:13:42;2.33;;;1.67;;
64225;SDS011;50545;56.064;26.178;2023-05-10T11:16:24;4.30;;;1.90;;
64225;SDS011;50545;56.064;26.178;2023-05-10T11:21:30;2.22;;;1.75;;
64225;SDS011;50545;56.064;26.178;2023-05-10T11:23:58;2.72;;;1.90;;
64225;SDS011;50545;56.064;26.178;2023-05-10T11:26:31;3.53;;;1.63;;
64225;SDS011;50545;56.064;26.178;2023-05-10T11:29:00;3.28;;;1.80;;
64225;SDS011;50545;56.064;26.178;2023-05-10T11:31:29;3.95;;;1.85;;
64225;SDS011;50545;56.064;26.178;2023-05-10T11:33:58;2.97;;;2.10;;
64225;SDS011;50545;56.064;26.178;2023-05-10T11:36:27;2.95;;;1.98;;
64225;SDS011;50545;56.064;26.178;2023-05-10T11:38:56;3.72;;;1.75;;
64225;SDS011;50545;56.064;26.178;2023-05-10T11:41:23;2.97;;;1.70;;
64225;SDS011;50545;56.064;26.178;2023-05-10T11:43:52;3.05;;;1.90;;
64225;SDS011;50545;56.064;26.178;2023-05-10T11:46:21;1.75;;;1.60;;
64225;SDS011;50545;56.064;26.178;2023-05-10T11:48:51;4.30;;;2.00;;
64225;SDS011;50545;56.064;26.178;2023-05-10T11:51:21;1.80;;;1.58;;
64225;SDS011;50545;56.064;26.178;2023-05-10T11:53:49;3.05;;;1.83;;
64225;SDS011;50545;56.064;26.178;2023-05-10T11:56:18;3.80;;;1.88;;
64225;SDS011;50545;56.064;26.178;2023-05-10T11:59:00;1.60;;;1.50;;
64225;SDS011;50545;56.064;26.178;2023-05-10T12:03:57;3.45;;;1.75;;
64225;SDS011;50545;56.064;26.178;2023-05-10T12:06:27;3.45;;;1.90;;
64225;SDS011;50545;56.064;26.178;2023-05-10T12:08:59;3.35;;;1.90;;
64225;SDS011;50545;56.064;26.178;2023-05-10T12:11:31;2.10;;;1.70;;
64225;SDS011;50545;56.064;26.178;2023-05-10T12:13:59;1.90;;;1.70;;
64225;SDS011;50545;56.064;26.178;2023-05-10T12:16:28;2.60;;;1.65;;
64225;SDS011;50545;56.064;26.178;2023-05-10T12:18:57;3.55;;;1.77;;
64225;SDS011;50545;56.064;26.178;2023-05-10T12:21:26;3.03;;;1.70;;
64225;SDS011;50545;56.064;26.178;2023-05-10T12:23:58;2.83;;;1.70;;
64225;SDS011;50545;56.064;26.178;2023-05-10T12:26:27;2.28;;;1.88;;
64225;SDS011;50545;56.064;26.178;2023-05-10T12:29:00;2.58;;;1.70;;
64225;SDS011;50545;56.064;26.178;2023-05-10T12:36:54;2.65;;;1.75;;
64225;SDS011;50545;56.064;26.178;2023-05-10T12:39:22;2.47;;;1.52;;
64225;SDS011;50545;56.064;26.178;2023-05-10T12:41:50;2.75;;;1.60;;
64225;SDS011;50545;56.064;26.178;2023-05-10T12:44:18;2.38;;;1.67;;
64225;SDS011;50545;56.064;26.178;2023-05-10T12:46:45;4.45;;;1.77;;
64225;SDS011;50545;56.064;26.178;2023-05-10T12:49:12;2.33;;;1.55;;
64225;SDS011;50545;56.064;26.178;2023-05-10T12:51:39;2.28;;;1.70;;
64225;SDS011;50545;56.064;26.178;2023-05-10T12:54:07;1.80;;;1.38;;
64225;SDS011;50545;56.064;26.178;2023-05-10T12:56:34;2.15;;;1.67;;
64225;SDS011;50545;56.064;26.178;2023-05-10T12:59:01;5.10;;;1.80;;
64225;SDS011;50545;56.064;26.178;2023-05-10T13:01:28;1.52;;;1.42;;
64225;SDS011;50545;56.064;26.178;2023-05-10T13:03:55;2.70;;;1.48;;
64225;SDS011;50545;56.064;26.178;2023-05-10T13:06:22;4.35;;;2.28;;
64225;SDS011;50545;56.064;26.178;2023-05-10T13:08:50;2.20;;;1.70;;
64225;SDS011;50545;56.064;26.178;2023-05-10T13:11:18;2.10;;;1.45;;
64225;SDS011;50545;56.064;26.178;2023-05-10T13:13:46;2.67;;;1.80;;
64225;SDS011;50545;56.064;26.178;2023-05-10T13:16:13;2.53;;;1.60;;
64225;SDS011;50545;56.064;26.178;2023-05-10T13:18:40;2.15;;;1.80;;
64225;SDS011;50545;56.064;26.178;2023-05-10T13:21:08;3.25;;;1.80;;
64225;SDS011;50545;56.064;26.178;2023-05-10T13:23:35;2.53;;;1.60;;
64225;SDS011;50545;56.064;26.178;2023-05-10T13:26:02;2.35;;;1.55;;
64225;SDS011;50545;56.064;26.178;2023-05-10T13:28:30;2.28;;;1.63;;
64225;SDS011;50545;56.064;26.178;2023-05-10T13:30:57;2.72;;;1.70;;
64225;SDS011;50545;56.064;26.178;2023-05-10T13:33:26;2.45;;;1.70;;
64225;SDS011;50545;56.064;26.178;2023-05-10T13:35:53;2.13;;;1.70;;
64225;SDS011;50545;56.064;26.178;2023-05-10T13:38:21;2.88;;;1.88;;
64225;SDS011;50545;56.064;26.178;2023-05-10T13:40:48;1.67;;;1.48;;
64225;SDS011;50545;56.064;26.178;2023-05-10T13:43:19;2.55;;;1.60;;
64225;SDS011;50545;56.064;26.178;2023-05-10T13:45:46;1.40;;;1.30;;
64225;SDS011;50545;56.064;26.178;2023-05-10T13:48:13;2.00;;;1.45;;
64225;SDS011;50545;56.064;26.178;2023-05-10T13:50:40;1.55;;;1.45;;
64225;SDS011;50545;56.064;26.178;2023-05-10T13:53:09;2.58;;;1.73;;
64225;SDS011;50545;56.064;26.178;2023-05-10T13:55:36;2.25;;;1.65;;
64225;SDS011;50545;56.064;26.178;2023-05-10T13:58:04;2.10;;;1.52;;
64225;SDS011;50545;56.064;26.178;2023-05-10T14:00:31;2.80;;;1.60;;
64225;SDS011;50545;56.064;26.178;2023-05-10T14:02:58;2.15;;;1.50;;
64225;SDS011;50545;56.064;26.178;2023-05-10T14:05:25;2.42;;;1.70;;
64225;SDS011;50545;56.064;26.178;2023-05-10T14:07:53;3.17;;;1.45;;
64225;SDS011;50545;56.064;26.178;2023-05-10T14:10:20;2.90;;;1.75;;
64225;SDS011;50545;56.064;26.178;2023-05-10T14:12:49;2.70;;;1.83;;
64225;SDS011;50545;56.064;26.178;2023-05-10T14:15:16;2.90;;;1.77;;
64225;SDS011;50545;56.064;26.178;2023-05-10T14:17:44;2.65;;;1.63;;
64225;SDS011;50545;56.064;26.178;2023-05-10T14:20:12;4.53;;;1.75;;
64225;SDS011;50545;56.064;26.178;2023-05-10T14:22:39;1.83;;;1.40;;
64225;SDS011;50545;56.064;26.178;2023-05-10T14:25:06;2.63;;;1.60;;
64225;SDS011;50545;56.064;26.178;2023-05-10T14:27:34;2.60;;;1.80;;
64225;SDS011;50545;56.064;26.178;2023-05-10T14:30:01;1.77;;;1.30;;
64225;SDS011;50545;56.064;26.178;2023-05-10T14:32:29;2.13;;;1.55;;
64225;SDS011;50545;56.064;26.178;2023-05-10T14:34:58;2.15;;;1.58;;
64225;SDS011;50545;56.064;26.178;2023-05-10T14:37:26;3.30;;;1.65;;
64225;SDS011;50545;56.064;26.178;2023-05-10T14:39:53;3.63;;;1.80;;
64225;SDS011;50545;56.064;26.178;2023-05-10T14:42:20;3.70;;;2.08;;
64225;SDS011;50545;56.064;26.178;2023-05-10T14:44:47;2.05;;;1.63;;
64225;SDS011;50545;56.064;26.178;2023-05-10T14:47:15;2.28;;;1.75;;
64225;SDS011;50545;56.064;26.178;2023-05-10T14:49:42;2.58;;;1.60;;
64225;SDS011;50545;56.064;26.178;2023-05-10T14:52:09;1.60;;;1.48;;
64225;SDS011;50545;56.064;26.178;2023-05-10T14:54:38;4.18;;;1.77;;
64225;SDS011;50545;56.064;26.178;2023-05-10T14:57:06;1.50;;;1.40;;
64225;SDS011;50545;56.064;26.178;2023-05-10T14:59:33;1.70;;;1.55;;
64225;SDS011;50545;56.064;26.178;2023-05-10T15:02:01;2.28;;;1.67;;
64225;SDS011;50545;56.064;26.178;2023-05-10T15:04:28;1.85;;;1.48;;
64225;SDS011;50545;56.064;26.178;2023-05-10T15:06:56;2.42;;;1.42;;
64225;SDS011;50545;56.064;26.178;2023-05-10T15:09:25;2.28;;;1.60;;
64225;SDS011;50545;56.064;26.178;2023-05-10T15:11:54;1.67;;;1.40;;
64225;SDS011;50545;56.064;26.178;2023-05-10T15:14:22;2.17;;;1.55;;
64225;SDS011;50545;56.064;26.178;2023-05-10T15:16:49;1.55;;;1.45;;
64225;SDS011;50545;56.064;26.178;2023-05-10T15:19:16;4.13;;;1.65;;
64225;SDS011;50545;56.064;26.178;2023-05-10T15:21:43;2.83;;;1.60;;
64225;SDS011;50545;56.064;26.178;2023-05-10T15:24:11;1.60;;;1.50;;
64225;SDS011;50545;56.064;26.178;2023-05-10T15:26:38;3.03;;;1.90;;
64225;SDS011;50545;56.064;26.178;2023-05-10T15:29:05;2.67;;;1.80;;
64225;SDS011;50545;56.064;26.178;2023-05-10T15:31:33;2.20;;;1.70;;
64225;SDS011;50545;56.064;26.178;2023-05-10T15:34:03;1.83;;;1.58;;
64225;SDS011;50545;56.064;26.178;2023-05-10T15:36:31;2.30;;;1.27;;
64225;SDS011;50545;56.064;26.178;2023-05-10T15:38:58;2.83;;;1.42;;
64225;SDS011;50545;56.064;26.178;2023-05-10T15:41:25;2.00;;;1.65;;
64225;SDS011;50545;56.064;26.178;2023-05-10T15:43:53;1.48;;;1.13;;